sensor_id;sensor_type;location;lat;lon;timestamp;temperature;humidity
16160;DHT22;8185;57.818;15.224;2022-10-26T00:01:09;11.10;99.90
16160;DHT22;8185;57.818;15.224;2022-10-26T00:03:37;11.10;99.90
16160;DHT22;8185;57.818;15.224;2022-10-26T00:06:06;11.10;99.90
16160;DHT22;8185;57.818;15.224;2022-10-26T00:08:35;11.20;99.90
16160;DHT22;8185;57.818;15.224;2022-10-26T00:11:02;11.20;99.90
16160;DHT22;8185;57.818;15.224;2022-10-26T00:13:32;11.20;99.90
16160;DHT22;8185;57.818;15.224;2022-10-26T00:15:59;11.20;99.90
16160;DHT22;8185;57.818;15.224;2022-10-26T00:18:27;11.20;99.90
16160;DHT22;8185;57.818;15.224;2022-10-26T00:20:55;11.20;99.90
16160;DHT22;8185;57.818;15.224;2022-10-26T00:23:29;11.10;99.90
16160;DHT22;8185;57.818;15.224;2022-10-26T00:25:57;11.20;99.90
16160;DHT22;8185;57.818;15.224;2022-10-26T00:28:24;11.10;99.90
16160;DHT22;8185;57.818;15.224;2022-10-26T00:30:53;11.20;99.90
16160;DHT22;8185;57.818;15.224;2022-10-26T00:33:23;11.20;99.90
16160;DHT22;8185;57.818;15.224;2022-10-26T00:35:52;11.10;99.90
16160;DHT22;8185;57.818;15.224;2022-10-26T00:38:20;11.10;99.90
16160;DHT22;8185;57.818;15.224;2022-10-26T00:40:47;11.10;99.90
16160;DHT22;8185;57.818;15.224;2022-10-26T00:46:01;11.10;99.90
16160;DHT22;8185;57.818;15.224;2022-10-26T00:48:33;11.10;99.90
16160;DHT22;8185;57.818;15.224;2022-10-26T00:51:06;11.10;99.90
16160;DHT22;8185;57.818;15.224;2022-10-26T00:53:35;11.10;99.90
16160;DHT22;8185;57.818;15.224;2022-10-26T00:56:03;11.10;99.90
16160;DHT22;8185;57.818;15.224;2022-10-26T00:58:31;11.10;99.90
16160;DHT22;8185;57.818;15.224;2022-10-26T01:01:00;11.10;99.90
16160;DHT22;8185;57.818;15.224;2022-10-26T01:03:28;11.10;99.90
16160;DHT22;8185;57.818;15.224;2022-10-26T01:05:57;11.10;99.90
16160;DHT22;8185;57.818;15.224;2022-10-26T01:08:25;11.10;99.90
16160;DHT22;8185;57.818;15.224;2022-10-26T01:10:54;11.10;99.90
16160;DHT22;8185;57.818;15.224;2022-10-26T01:13:24;11.10;99.90
16160;DHT22;8185;57.818;15.224;2022-10-26T01:16:05;11.10;99.90
16160;DHT22;8185;57.818;15.224;2022-10-26T01:18:39;11.10;99.90
16160;DHT22;8185;57.818;15.224;2022-10-26T01:21:36;11.10;99.90
16160;DHT22;8185;57.818;15.224;2022-10-26T01:24:30;11.10;99.90
16160;DHT22;8185;57.818;15.224;2022-10-26T01:27:19;11.10;99.90
16160;DHT22;8185;57.818;15.224;2022-10-26T01:30:14;11.10;99.90
16160;DHT22;8185;57.818;15.224;2022-10-26T01:32:46;11.10;99.90
16160;DHT22;8185;57.818;15.224;2022-10-26T01:35:16;11.10;99.90
16160;DHT22;8185;57.818;15.224;2022-10-26T01:37:52;11.10;99.90
16160;DHT22;8185;57.818;15.224;2022-10-26T01:40:24;11.00;99.90
16160;DHT22;8185;57.818;15.224;2022-10-26T01:42:54;11.00;99.90
16160;DHT22;8185;57.818;15.224;2022-10-26T01:45:27;11.00;99.90
16160;DHT22;8185;57.818;15.224;2022-10-26T01:47:58;11.00;99.90
16160;DHT22;8185;57.818;15.224;2022-10-26T01:50:26;11.00;99.90
16160;DHT22;8185;57.818;15.224;2022-10-26T01:52:54;11.00;99.90
16160;DHT22;8185;57.818;15.224;2022-10-26T01:55:44;10.90;99.90
16160;DHT22;8185;57.818;15.224;2022-10-26T02:01:15;10.80;99.90
16160;DHT22;8185;57.818;15.224;2022-10-26T02:03:51;10.80;99.90
16160;DHT22;8185;57.818;15.224;2022-10-26T02:06:30;10.80;99.90
16160;DHT22;8185;57.818;15.224;2022-10-26T02:09:10;10.80;99.90
16160;DHT22;8185;57.818;15.224;2022-10-26T02:11:46;10.80;99.90
16160;DHT22;8185;57.818;15.224;2022-10-26T02:14:19;10.80;99.90
16160;DHT22;8185;57.818;15.224;2022-10-26T02:16:52;10.80;99.90
16160;DHT22;8185;57.818;15.224;2022-10-26T02:19:31;10.80;99.90
16160;DHT22;8185;57.818;15.224;2022-10-26T02:22:04;10.80;99.90
16160;DHT22;8185;57.818;15.224;2022-10-26T02:24:34;10.80;99.90
16160;DHT22;8185;57.818;15.224;2022-10-26T02:27:04;10.80;99.90
16160;DHT22;8185;57.818;15.224;2022-10-26T02:29:34;10.90;99.90
16160;DHT22;8185;57.818;15.224;2022-10-26T02:32:05;10.90;99.90
16160;DHT22;8185;57.818;15.224;2022-10-26T02:34:34;10.90;99.90
16160;DHT22;8185;57.818;15.224;2022-10-26T02:37:04;10.90;99.90
16160;DHT22;8185;57.818;15.224;2022-10-26T02:39:33;10.90;99.90
16160;DHT22;8185;57.818;15.224;2022-10-26T02:42:04;10.80;99.90
16160;DHT22;8185;57.818;15.224;2022-10-26T02:44:36;10.80;99.90
16160;DHT22;8185;57.818;15.224;2022-10-26T02:47:06;10.80;99.90
16160;DHT22;8185;57.818;15.224;2022-10-26T02:49:34;10.80;99.90
16160;DHT22;8185;57.818;15.224;2022-10-26T02:52:05;10.80;99.90
16160;DHT22;8185;57.818;15.224;2022-10-26T02:54:40;10.80;99.90
16160;DHT22;8185;57.818;15.224;2022-10-26T02:57:13;10.80;99.90
16160;DHT22;8185;57.818;15.224;2022-10-26T02:59:43;10.80;99.90
16160;DHT22;8185;57.818;15.224;2022-10-26T03:02:14;10.70;99.90
16160;DHT22;8185;57.818;15.224;2022-10-26T03:04:42;10.70;99.90
16160;DHT22;8185;57.818;15.224;2022-10-26T03:07:10;10.70;99.90
16160;DHT22;8185;57.818;15.224;2022-10-26T03:09:37;10.70;99.90
16160;DHT22;8185;57.818;15.224;2022-10-26T03:12:05;10.70;99.90
16160;DHT22;8185;57.818;15.224;2022-10-26T03:14:32;10.50;99.90
16160;DHT22;8185;57.818;15.224;2022-10-26T03:16:59;10.60;99.90
16160;DHT22;8185;57.818;15.224;2022-10-26T03:19:28;10.70;99.90
16160;DHT22;8185;57.818;15.224;2022-10-26T03:21:56;10.70;99.90
16160;DHT22;8185;57.818;15.224;2022-10-26T03:24:23;10.70;99.90
16160;DHT22;8185;57.818;15.224;2022-10-26T03:26:50;10.70;99.90
16160;DHT22;8185;57.818;15.224;2022-10-26T03:29:18;10.70;99.90
16160;DHT22;8185;57.818;15.224;2022-10-26T03:31:45;10.70;99.90
16160;DHT22;8185;57.818;15.224;2022-10-26T03:34:14;10.70;99.90
16160;DHT22;8185;57.818;15.224;2022-10-26T03:36:42;10.80;99.90
16160;DHT22;8185;57.818;15.224;2022-10-26T03:39:10;10.70;99.90
16160;DHT22;8185;57.818;15.224;2022-10-26T03:41:37;10.80;99.90
16160;DHT22;8185;57.818;15.224;2022-10-26T03:44:05;10.70;99.90
16160;DHT22;8185;57.818;15.224;2022-10-26T03:46:32;10.70;99.90
16160;DHT22;8185;57.818;15.224;2022-10-26T03:49:00;10.80;99.90
16160;DHT22;8185;57.818;15.224;2022-10-26T03:51:27;10.80;99.90
16160;DHT22;8185;57.818;15.224;2022-10-26T03:53:56;10.80;99.90
16160;DHT22;8185;57.818;15.224;2022-10-26T03:56:23;10.90;99.90
16160;DHT22;8185;57.818;15.224;2022-10-26T03:58:51;10.80;99.90
16160;DHT22;8185;57.818;15.224;2022-10-26T04:01:18;10.80;99.90
16160;DHT22;8185;57.818;15.224;2022-10-26T04:03:46;10.80;99.90
16160;DHT22;8185;57.818;15.224;2022-10-26T04:06:13;10.80;99.90
16160;DHT22;8185;57.818;15.224;2022-10-26T04:08:40;10.80;99.90
16160;DHT22;8185;57.818;15.224;2022-10-26T04:11:09;10.80;99.90
16160;DHT22;8185;57.818;15.224;2022-10-26T04:13:37;10.80;99.90
16160;DHT22;8185;57.818;15.224;2022-10-26T04:16:04;10.80;99.90
16160;DHT22;8185;57.818;15.224;2022-10-26T04:18:32;10.80;99.90
16160;DHT22;8185;57.818;15.224;2022-10-26T04:21:00;10.80;99.90
16160;DHT22;8185;57.818;15.224;2022-10-26T04:23:28;10.70;99.90
16160;DHT22;8185;57.818;15.224;2022-10-26T04:25:55;10.70;99.90
16160;DHT22;8185;57.818;15.224;2022-10-26T04:28:24;10.70;99.90
16160;DHT22;8185;57.818;15.224;2022-10-26T04:30:51;10.70;99.90
16160;DHT22;8185;57.818;15.224;2022-10-26T04:33:18;10.70;99.90
16160;DHT22;8185;57.818;15.224;2022-10-26T04:35:46;10.70;99.90
16160;DHT22;8185;57.818;15.224;2022-10-26T04:38:13;10.70;99.90
16160;DHT22;8185;57.818;15.224;2022-10-26T04:40:41;10.70;99.90
16160;DHT22;8185;57.818;15.224;2022-10-26T04:43:08;10.70;99.90
16160;DHT22;8185;57.818;15.224;2022-10-26T04:45:38;10.70;99.90
16160;DHT22;8185;57.818;15.224;2022-10-26T04:48:08;10.70;99.90
16160;DHT22;8185;57.818;15.224;2022-10-26T04:50:36;10.70;99.90
16160;DHT22;8185;57.818;15.224;2022-10-26T04:53:04;10.70;99.90
16160;DHT22;8185;57.818;15.224;2022-10-26T04:55:32;10.70;99.90
16160;DHT22;8185;57.818;15.224;2022-10-26T04:58:00;10.70;99.90
16160;DHT22;8185;57.818;15.224;2022-10-26T05:00:27;10.70;99.90
16160;DHT22;8185;57.818;15.224;2022-10-26T05:03:00;10.70;99.90
16160;DHT22;8185;57.818;15.224;2022-10-26T05:05:29;10.70;99.90
16160;DHT22;8185;57.818;15.224;2022-10-26T05:07:57;10.60;99.90
16160;DHT22;8185;57.818;15.224;2022-10-26T05:10:25;10.60;99.90
16160;DHT22;8185;57.818;15.224;2022-10-26T05:12:53;10.60;99.90
16160;DHT22;8185;57.818;15.224;2022-10-26T05:15:21;10.60;99.90
16160;DHT22;8185;57.818;15.224;2022-10-26T05:17:54;10.60;99.90
16160;DHT22;8185;57.818;15.224;2022-10-26T05:20:24;10.60;99.90
16160;DHT22;8185;57.818;15.224;2022-10-26T05:22:55;10.60;99.90
16160;DHT22;8185;57.818;15.224;2022-10-26T05:25:23;10.60;99.90
16160;DHT22;8185;57.818;15.224;2022-10-26T05:27:50;10.60;99.90
16160;DHT22;8185;57.818;15.224;2022-10-26T05:30:18;10.60;99.90
16160;DHT22;8185;57.818;15.224;2022-10-26T05:32:59;10.60;99.90
16160;DHT22;8185;57.818;15.224;2022-10-26T05:35:30;10.60;99.90
16160;DHT22;8185;57.818;15.224;2022-10-26T05:37:58;10.60;99.90
16160;DHT22;8185;57.818;15.224;2022-10-26T05:40:25;10.60;99.90
16160;DHT22;8185;57.818;15.224;2022-10-26T05:42:58;10.60;99.90
16160;DHT22;8185;57.818;15.224;2022-10-26T05:45:26;10.60;99.90
16160;DHT22;8185;57.818;15.224;2022-10-26T05:47:54;10.60;99.90
16160;DHT22;8185;57.818;15.224;2022-10-26T05:50:21;10.60;99.90
16160;DHT22;8185;57.818;15.224;2022-10-26T05:52:50;10.60;99.90
16160;DHT22;8185;57.818;15.224;2022-10-26T05:55:18;10.60;99.90
16160;DHT22;8185;57.818;15.224;2022-10-26T05:57:46;10.60;99.90
16160;DHT22;8185;57.818;15.224;2022-10-26T06:00:19;10.50;99.90
16160;DHT22;8185;57.818;15.224;2022-10-26T06:03:00;10.50;99.90
16160;DHT22;8185;57.818;15.224;2022-10-26T06:05:33;10.50;99.90
16160;DHT22;8185;57.818;15.224;2022-10-26T06:08:07;10.60;99.90
16160;DHT22;8185;57.818;15.224;2022-10-26T06:10:37;10.50;99.90
16160;DHT22;8185;57.818;15.224;2022-10-26T06:13:05;10.50;99.90
16160;DHT22;8185;57.818;15.224;2022-10-26T06:15:36;10.50;99.90
16160;DHT22;8185;57.818;15.224;2022-10-26T06:18:15;10.50;99.90
16160;DHT22;8185;57.818;15.224;2022-10-26T06:20:52;10.50;99.90
16160;DHT22;8185;57.818;15.224;2022-10-26T06:23:37;10.50;99.90
16160;DHT22;8185;57.818;15.224;2022-10-26T06:26:11;10.50;99.90
16160;DHT22;8185;57.818;15.224;2022-10-26T06:28:48;10.50;99.90
16160;DHT22;8185;57.818;15.224;2022-10-26T06:31:16;10.50;99.90
16160;DHT22;8185;57.818;15.224;2022-10-26T06:33:44;10.50;99.90
16160;DHT22;8185;57.818;15.224;2022-10-26T06:36:20;10.50;99.90
16160;DHT22;8185;57.818;15.224;2022-10-26T06:38:54;10.50;99.90
16160;DHT22;8185;57.818;15.224;2022-10-26T06:41:22;10.50;99.90
16160;DHT22;8185;57.818;15.224;2022-10-26T06:43:50;10.50;99.90
16160;DHT22;8185;57.818;15.224;2022-10-26T06:46:29;10.60;99.90
16160;DHT22;8185;57.818;15.224;2022-10-26T06:49:06;10.60;99.90
16160;DHT22;8185;57.818;15.224;2022-10-26T06:51:40;10.60;99.90
16160;DHT22;8185;57.818;15.224;2022-10-26T06:54:15;10.60;99.90
16160;DHT22;8185;57.818;15.224;2022-10-26T06:56:45;10.60;99.90
16160;DHT22;8185;57.818;15.224;2022-10-26T06:59:16;10.60;99.90
16160;DHT22;8185;57.818;15.224;2022-10-26T07:01:48;10.60;99.90
16160;DHT22;8185;57.818;15.224;2022-10-26T07:04:15;10.70;99.90
16160;DHT22;8185;57.818;15.224;2022-10-26T07:06:42;10.70;99.90
16160;DHT22;8185;57.818;15.224;2022-10-26T07:09:11;10.70;99.90
16160;DHT22;8185;57.818;15.224;2022-10-26T07:11:39;10.80;99.90
16160;DHT22;8185;57.818;15.224;2022-10-26T07:14:06;10.80;99.90
16160;DHT22;8185;57.818;15.224;2022-10-26T07:16:33;10.80;99.90
16160;DHT22;8185;57.818;15.224;2022-10-26T07:19:02;10.80;99.90
16160;DHT22;8185;57.818;15.224;2022-10-26T07:21:29;10.80;99.90
16160;DHT22;8185;57.818;15.224;2022-10-26T07:23:57;10.80;99.90
16160;DHT22;8185;57.818;15.224;2022-10-26T07:26:26;10.80;99.90
16160;DHT22;8185;57.818;15.224;2022-10-26T07:28:54;10.90;99.90
16160;DHT22;8185;57.818;15.224;2022-10-26T07:31:21;10.90;99.90
16160;DHT22;8185;57.818;15.224;2022-10-26T07:33:48;10.90;99.90
16160;DHT22;8185;57.818;15.224;2022-10-26T07:36:16;10.90;99.90
16160;DHT22;8185;57.818;15.224;2022-10-26T07:38:43;10.90;99.90
16160;DHT22;8185;57.818;15.224;2022-10-26T07:41:10;11.00;99.90
16160;DHT22;8185;57.818;15.224;2022-10-26T07:43:40;11.00;99.90
16160;DHT22;8185;57.818;15.224;2022-10-26T07:46:10;11.00;99.90
16160;DHT22;8185;57.818;15.224;2022-10-26T07:48:37;11.10;99.90
16160;DHT22;8185;57.818;15.224;2022-10-26T07:51:04;11.10;99.90
16160;DHT22;8185;57.818;15.224;2022-10-26T07:53:32;11.10;99.90
16160;DHT22;8185;57.818;15.224;2022-10-26T07:55:59;11.10;99.90
16160;DHT22;8185;57.818;15.224;2022-10-26T07:58:26;11.20;99.90
16160;DHT22;8185;57.818;15.224;2022-10-26T08:00:55;11.20;99.90
16160;DHT22;8185;57.818;15.224;2022-10-26T08:03:23;11.10;99.90
16160;DHT22;8185;57.818;15.224;2022-10-26T08:05:50;11.10;99.90
16160;DHT22;8185;57.818;15.224;2022-10-26T08:08:20;11.10;99.90
16160;DHT22;8185;57.818;15.224;2022-10-26T08:10:48;11.20;99.90
16160;DHT22;8185;57.818;15.224;2022-10-26T08:13:17;11.20;99.90
16160;DHT22;8185;57.818;15.224;2022-10-26T08:15:44;11.10;99.90
16160;DHT22;8185;57.818;15.224;2022-10-26T08:18:14;11.20;99.90
16160;DHT22;8185;57.818;15.224;2022-10-26T08:20:41;11.20;99.90
16160;DHT22;8185;57.818;15.224;2022-10-26T08:23:08;11.20;99.90
16160;DHT22;8185;57.818;15.224;2022-10-26T08:25:36;11.20;99.90
16160;DHT22;8185;57.818;15.224;2022-10-26T08:28:03;11.30;99.90
16160;DHT22;8185;57.818;15.224;2022-10-26T08:30:31;11.30;99.90
16160;DHT22;8185;57.818;15.224;2022-10-26T08:32:59;11.20;99.90
16160;DHT22;8185;57.818;15.224;2022-10-26T08:35:28;11.30;99.90
16160;DHT22;8185;57.818;15.224;2022-10-26T08:37:56;11.30;99.90
16160;DHT22;8185;57.818;15.224;2022-10-26T08:40:27;11.30;99.90
16160;DHT22;8185;57.818;15.224;2022-10-26T08:42:59;11.40;99.90
16160;DHT22;8185;57.818;15.224;2022-10-26T08:45:30;11.30;99.90
16160;DHT22;8185;57.818;15.224;2022-10-26T08:48:02;11.40;99.90
16160;DHT22;8185;57.818;15.224;2022-10-26T08:50:34;11.40;99.90
16160;DHT22;8185;57.818;15.224;2022-10-26T08:53:10;11.40;99.90
16160;DHT22;8185;57.818;15.224;2022-10-26T08:55:43;11.40;99.90
16160;DHT22;8185;57.818;15.224;2022-10-26T08:58:15;11.40;99.90
16160;DHT22;8185;57.818;15.224;2022-10-26T09:00:46;11.40;99.90
16160;DHT22;8185;57.818;15.224;2022-10-26T09:03:16;11.40;99.90
16160;DHT22;8185;57.818;15.224;2022-10-26T09:08:41;11.50;99.90
16160;DHT22;8185;57.818;15.224;2022-10-26T09:11:16;11.50;99.90
16160;DHT22;8185;57.818;15.224;2022-10-26T09:13:59;11.30;99.90
16160;DHT22;8185;57.818;15.224;2022-10-26T09:16:32;11.40;99.90
16160;DHT22;8185;57.818;15.224;2022-10-26T09:22:15;11.40;99.90
16160;DHT22;8185;57.818;15.224;2022-10-26T09:24:50;11.40;99.90
16160;DHT22;8185;57.818;15.224;2022-10-26T09:27:23;11.40;99.90
16160;DHT22;8185;57.818;15.224;2022-10-26T09:29:54;11.40;99.90
16160;DHT22;8185;57.818;15.224;2022-10-26T09:32:25;11.50;99.90
16160;DHT22;8185;57.818;15.224;2022-10-26T09:34:57;11.40;99.90
16160;DHT22;8185;57.818;15.224;2022-10-26T09:37:31;11.40;99.90
16160;DHT22;8185;57.818;15.224;2022-10-26T09:40:10;11.40;99.90
16160;DHT22;8185;57.818;15.224;2022-10-26T09:42:42;11.30;99.90
16160;DHT22;8185;57.818;15.224;2022-10-26T09:45:15;11.30;99.90
16160;DHT22;8185;57.818;15.224;2022-10-26T09:47:46;11.50;99.90
16160;DHT22;8185;57.818;15.224;2022-10-26T09:50:22;11.50;99.90
16160;DHT22;8185;57.818;15.224;2022-10-26T09:52:52;11.50;99.90
16160;DHT22;8185;57.818;15.224;2022-10-26T09:55:20;11.30;99.90
16160;DHT22;8185;57.818;15.224;2022-10-26T09:57:50;11.30;99.90
16160;DHT22;8185;57.818;15.224;2022-10-26T10:00:25;11.30;99.90
16160;DHT22;8185;57.818;15.224;2022-10-26T10:02:54;11.30;99.90
16160;DHT22;8185;57.818;15.224;2022-10-26T10:05:28;11.20;99.90
16160;DHT22;8185;57.818;15.224;2022-10-26T10:08:16;11.20;99.90
16160;DHT22;8185;57.818;15.224;2022-10-26T10:10:56;11.20;99.90
16160;DHT22;8185;57.818;15.224;2022-10-26T10:13:26;11.30;99.90
16160;DHT22;8185;57.818;15.224;2022-10-26T10:16:00;11.30;99.90
16160;DHT22;8185;57.818;15.224;2022-10-26T10:18:28;11.30;99.90
16160;DHT22;8185;57.818;15.224;2022-10-26T10:20:57;11.30;99.90
16160;DHT22;8185;57.818;15.224;2022-10-26T10:23:31;11.30;99.90
16160;DHT22;8185;57.818;15.224;2022-10-26T10:26:02;11.30;99.90
16160;DHT22;8185;57.818;15.224;2022-10-26T10:28:32;11.40;99.90
16160;DHT22;8185;57.818;15.224;2022-10-26T10:31:01;11.40;99.90
16160;DHT22;8185;57.818;15.224;2022-10-26T10:33:37;11.40;99.90
16160;DHT22;8185;57.818;15.224;2022-10-26T10:36:08;11.50;99.90
16160;DHT22;8185;57.818;15.224;2022-10-26T10:38:39;11.40;99.90
16160;DHT22;8185;57.818;15.224;2022-10-26T10:41:15;11.40;99.90
16160;DHT22;8185;57.818;15.224;2022-10-26T10:43:46;11.40;99.90
16160;DHT22;8185;57.818;15.224;2022-10-26T10:46:22;11.50;99.90
16160;DHT22;8185;57.818;15.224;2022-10-26T10:48:53;11.60;99.90
16160;DHT22;8185;57.818;15.224;2022-10-26T10:51:23;11.60;99.90
16160;DHT22;8185;57.818;15.224;2022-10-26T10:53:53;11.70;99.90
16160;DHT22;8185;57.818;15.224;2022-10-26T10:56:39;11.80;99.90
16160;DHT22;8185;57.818;15.224;2022-10-26T10:59:29;11.80;99.90
16160;DHT22;8185;57.818;15.224;2022-10-26T11:05:09;11.70;99.90
16160;DHT22;8185;57.818;15.224;2022-10-26T11:07:46;11.70;99.90
16160;DHT22;8185;57.818;15.224;2022-10-26T11:10:19;11.60;99.90
16160;DHT22;8185;57.818;15.224;2022-10-26T11:12:51;11.70;99.90
16160;DHT22;8185;57.818;15.224;2022-10-26T11:15:23;11.70;99.90
16160;DHT22;8185;57.818;15.224;2022-10-26T11:17:57;11.70;99.90
16160;DHT22;8185;57.818;15.224;2022-10-26T11:20:25;11.80;99.90
16160;DHT22;8185;57.818;15.224;2022-10-26T11:23:02;11.80;99.90
16160;DHT22;8185;57.818;15.224;2022-10-26T11:25:38;11.80;99.90
16160;DHT22;8185;57.818;15.224;2022-10-26T11:28:14;11.80;99.90
16160;DHT22;8185;57.818;15.224;2022-10-26T11:30:46;11.90;99.90
16160;DHT22;8185;57.818;15.224;2022-10-26T11:33:19;12.00;99.90
16160;DHT22;8185;57.818;15.224;2022-10-26T11:35:54;12.00;99.90
16160;DHT22;8185;57.818;15.224;2022-10-26T11:38:30;11.90;99.90
16160;DHT22;8185;57.818;15.224;2022-10-26T11:41:05;12.00;99.90
16160;DHT22;8185;57.818;15.224;2022-10-26T11:43:38;12.00;99.90
16160;DHT22;8185;57.818;15.224;2022-10-26T11:46:10;12.00;99.90
16160;DHT22;8185;57.818;15.224;2022-10-26T11:48:43;11.90;99.90
16160;DHT22;8185;57.818;15.224;2022-10-26T11:51:19;12.00;99.90
16160;DHT22;8185;57.818;15.224;2022-10-26T11:53:49;12.00;99.90
16160;DHT22;8185;57.818;15.224;2022-10-26T11:56:24;12.00;99.90
16160;DHT22;8185;57.818;15.224;2022-10-26T11:58:53;11.90;99.90
16160;DHT22;8185;57.818;15.224;2022-10-26T12:01:22;11.90;99.90
16160;DHT22;8185;57.818;15.224;2022-10-26T12:03:52;11.90;99.90
16160;DHT22;8185;57.818;15.224;2022-10-26T12:06:23;12.00;99.90
16160;DHT22;8185;57.818;15.224;2022-10-26T12:08:56;12.10;99.90
16160;DHT22;8185;57.818;15.224;2022-10-26T12:11:35;12.10;99.90
16160;DHT22;8185;57.818;15.224;2022-10-26T12:14:14;12.20;99.90
16160;DHT22;8185;57.818;15.224;2022-10-26T12:16:49;12.10;99.90
16160;DHT22;8185;57.818;15.224;2022-10-26T12:19:22;12.00;99.90
16160;DHT22;8185;57.818;15.224;2022-10-26T12:21:53;12.00;99.90
16160;DHT22;8185;57.818;15.224;2022-10-26T12:24:28;12.10;99.90
16160;DHT22;8185;57.818;15.224;2022-10-26T12:27:00;12.00;99.90
16160;DHT22;8185;57.818;15.224;2022-10-26T12:29:44;12.00;99.90
16160;DHT22;8185;57.818;15.224;2022-10-26T12:35:33;11.90;99.90
16160;DHT22;8185;57.818;15.224;2022-10-26T12:40:44;11.90;99.90
16160;DHT22;8185;57.818;15.224;2022-10-26T12:43:38;11.90;99.90
16160;DHT22;8185;57.818;15.224;2022-10-26T12:52:19;11.60;99.90
16160;DHT22;8185;57.818;15.224;2022-10-26T12:55:01;11.60;99.90
16160;DHT22;8185;57.818;15.224;2022-10-26T12:57:36;11.70;99.90
16160;DHT22;8185;57.818;15.224;2022-10-26T13:00:12;11.70;99.90
16160;DHT22;8185;57.818;15.224;2022-10-26T13:02:53;11.60;99.90
16160;DHT22;8185;57.818;15.224;2022-10-26T13:08:12;11.60;99.90
16160;DHT22;8185;57.818;15.224;2022-10-26T13:11:00;11.60;99.90
16160;DHT22;8185;57.818;15.224;2022-10-26T13:13:29;11.60;99.90
16160;DHT22;8185;57.818;15.224;2022-10-26T13:16:00;11.60;99.90
16160;DHT22;8185;57.818;15.224;2022-10-26T13:18:28;11.50;99.90
16160;DHT22;8185;57.818;15.224;2022-10-26T13:21:08;11.50;99.90
16160;DHT22;8185;57.818;15.224;2022-10-26T13:23:39;11.50;99.90
16160;DHT22;8185;57.818;15.224;2022-10-26T13:26:08;11.50;99.90
16160;DHT22;8185;57.818;15.224;2022-10-26T13:28:49;11.50;99.90
16160;DHT22;8185;57.818;15.224;2022-10-26T13:31:54;11.50;99.90
16160;DHT22;8185;57.818;15.224;2022-10-26T13:34:24;11.60;99.90
16160;DHT22;8185;57.818;15.224;2022-10-26T13:37:11;11.60;99.90
16160;DHT22;8185;57.818;15.224;2022-10-26T13:39:42;11.50;99.90
16160;DHT22;8185;57.818;15.224;2022-10-26T13:42:14;11.50;99.90
16160;DHT22;8185;57.818;15.224;2022-10-26T13:44:47;11.50;99.90
16160;DHT22;8185;57.818;15.224;2022-10-26T13:47:28;11.40;99.90
16160;DHT22;8185;57.818;15.224;2022-10-26T13:50:03;11.40;99.90
16160;DHT22;8185;57.818;15.224;2022-10-26T13:52:34;11.40;99.90
16160;DHT22;8185;57.818;15.224;2022-10-26T13:55:06;11.40;99.90
16160;DHT22;8185;57.818;15.224;2022-10-26T13:57:39;11.40;99.90
16160;DHT22;8185;57.818;15.224;2022-10-26T14:00:13;11.40;99.90
16160;DHT22;8185;57.818;15.224;2022-10-26T14:02:43;11.40;99.90
16160;DHT22;8185;57.818;15.224;2022-10-26T14:05:12;11.40;99.90
16160;DHT22;8185;57.818;15.224;2022-10-26T14:07:42;11.40;99.90
16160;DHT22;8185;57.818;15.224;2022-10-26T14:10:24;11.40;99.90
16160;DHT22;8185;57.818;15.224;2022-10-26T14:12:52;11.30;99.90
16160;DHT22;8185;57.818;15.224;2022-10-26T14:15:23;11.30;99.90
16160;DHT22;8185;57.818;15.224;2022-10-26T14:17:54;11.30;99.90
16160;DHT22;8185;57.818;15.224;2022-10-26T14:20:23;11.30;99.90
16160;DHT22;8185;57.818;15.224;2022-10-26T14:22:52;11.30;99.90
16160;DHT22;8185;57.818;15.224;2022-10-26T14:25:22;11.30;99.90
16160;DHT22;8185;57.818;15.224;2022-10-26T14:27:50;11.30;99.90
16160;DHT22;8185;57.818;15.224;2022-10-26T14:30:21;11.30;99.90
16160;DHT22;8185;57.818;15.224;2022-10-26T14:32:49;11.30;99.90
16160;DHT22;8185;57.818;15.224;2022-10-26T14:35:21;11.30;99.90
16160;DHT22;8185;57.818;15.224;2022-10-26T14:37:52;11.30;99.90
16160;DHT22;8185;57.818;15.224;2022-10-26T14:40:23;11.30;99.90
16160;DHT22;8185;57.818;15.224;2022-10-26T14:42:53;11.30;99.90
16160;DHT22;8185;57.818;15.224;2022-10-26T14:45:28;11.30;99.90
16160;DHT22;8185;57.818;15.224;2022-10-26T14:47:58;11.30;99.90
16160;DHT22;8185;57.818;15.224;2022-10-26T14:50:28;11.20;99.90
16160;DHT22;8185;57.818;15.224;2022-10-26T14:53:01;11.20;99.90
16160;DHT22;8185;57.818;15.224;2022-10-26T14:55:31;11.20;99.90
16160;DHT22;8185;57.818;15.224;2022-10-26T14:58:16;11.20;99.90
16160;DHT22;8185;57.818;15.224;2022-10-26T15:00:44;11.20;99.90
16160;DHT22;8185;57.818;15.224;2022-10-26T15:03:15;11.10;99.90
16160;DHT22;8185;57.818;15.224;2022-10-26T15:05:44;11.10;99.90
16160;DHT22;8185;57.818;15.224;2022-10-26T15:08:39;11.10;99.90
16160;DHT22;8185;57.818;15.224;2022-10-26T15:11:07;11.00;99.90
16160;DHT22;8185;57.818;15.224;2022-10-26T15:13:35;11.00;99.90
16160;DHT22;8185;57.818;15.224;2022-10-26T15:16:09;11.00;99.90
16160;DHT22;8185;57.818;15.224;2022-10-26T15:18:38;10.90;99.90
16160;DHT22;8185;57.818;15.224;2022-10-26T15:21:23;10.90;99.90
16160;DHT22;8185;57.818;15.224;2022-10-26T15:23:53;10.90;99.90
16160;DHT22;8185;57.818;15.224;2022-10-26T15:26:21;10.90;99.90
16160;DHT22;8185;57.818;15.224;2022-10-26T15:28:48;10.90;99.90
16160;DHT22;8185;57.818;15.224;2022-10-26T15:31:41;10.90;99.90
16160;DHT22;8185;57.818;15.224;2022-10-26T15:34:13;10.90;99.90
16160;DHT22;8185;57.818;15.224;2022-10-26T15:36:42;10.80;99.90
16160;DHT22;8185;57.818;15.224;2022-10-26T15:39:09;10.80;99.90
16160;DHT22;8185;57.818;15.224;2022-10-26T15:41:38;10.80;99.90
16160;DHT22;8185;57.818;15.224;2022-10-26T15:44:13;10.80;99.90
16160;DHT22;8185;57.818;15.224;2022-10-26T15:46:42;10.80;99.90
16160;DHT22;8185;57.818;15.224;2022-10-26T15:49:15;10.70;99.90
16160;DHT22;8185;57.818;15.224;2022-10-26T15:51:46;10.80;99.90
16160;DHT22;8185;57.818;15.224;2022-10-26T15:54:14;10.70;99.90
16160;DHT22;8185;57.818;15.224;2022-10-26T15:56:42;10.70;99.90
16160;DHT22;8185;57.818;15.224;2022-10-26T15:59:16;10.70;99.90
16160;DHT22;8185;57.818;15.224;2022-10-26T16:01:45;10.70;99.90
16160;DHT22;8185;57.818;15.224;2022-10-26T16:04:12;10.70;99.90
16160;DHT22;8185;57.818;15.224;2022-10-26T16:06:40;10.60;99.90
16160;DHT22;8185;57.818;15.224;2022-10-26T16:09:13;10.60;99.90
16160;DHT22;8185;57.818;15.224;2022-10-26T16:11:42;10.60;99.90
16160;DHT22;8185;57.818;15.224;2022-10-26T16:14:09;10.60;99.90
16160;DHT22;8185;57.818;15.224;2022-10-26T16:16:37;10.60;99.90
16160;DHT22;8185;57.818;15.224;2022-10-26T16:19:05;10.60;99.90
16160;DHT22;8185;57.818;15.224;2022-10-26T16:21:32;10.60;99.90
16160;DHT22;8185;57.818;15.224;2022-10-26T16:23:59;10.60;99.90
16160;DHT22;8185;57.818;15.224;2022-10-26T16:26:28;10.50;99.90